Morral, Ohio
Current Conditions -  °F | °C
As of 3:42 PM on Monday 26 Jan 2015 (Local Time) from KMNN Reporting Station
Few Clouds Few Clouds  
Wind Chill:   Ceiling: Unl
Heat Index: 17°   Visibility: 9mi
Dew Point: 10°   Wind: 13mph
Humidity: 74%   Direction: 10°N
Pressure: 29.87"   Gusts: NA
Location:  40.69°N, 83.21°W
Report Text: KMNN 262042Z AUTO 01011KT 9SM FEW015 M08/M12 A2987 RMK AO2 T10831122 TSNO $
Loading
Personal Weather Stations






























Interactive Weather Map New forecast layout! Learn more

10-Day Weather Forecast

Advertisements
Track Severe Weather on mobile